sensor_id;sensor_type;location;lat;lon;timestamp;temperature;humidity
15926;DHT22;8062;53.882;10.642;2023-06-26T00:00:14;18.20;99.90
15926;DHT22;8062;53.882;10.642;2023-06-26T00:01:33;18.20;99.90
15926;DHT22;8062;53.882;10.642;2023-06-26T00:02:52;18.20;99.90
15926;DHT22;8062;53.882;10.642;2023-06-26T00:04:12;18.10;99.90
15926;DHT22;8062;53.882;10.642;2023-06-26T00:05:33;18.10;99.90
15926;DHT22;8062;53.882;10.642;2023-06-26T00:06:54;18.10;99.90
15926;DHT22;8062;53.882;10.642;2023-06-26T00:08:13;18.10;99.90
15926;DHT22;8062;53.882;10.642;2023-06-26T00:09:32;18.10;99.90
15926;DHT22;8062;53.882;10.642;2023-06-26T00:10:52;18.10;99.90
15926;DHT22;8062;53.882;10.642;2023-06-26T00:12:12;18.10;99.90
15926;DHT22;8062;53.882;10.642;2023-06-26T00:13:33;18.10;99.90
15926;DHT22;8062;53.882;10.642;2023-06-26T00:14:53;18.10;99.90
15926;DHT22;8062;53.882;10.642;2023-06-26T00:16:13;18.10;99.90
15926;DHT22;8062;53.882;10.642;2023-06-26T00:17:32;18.00;99.90
15926;DHT22;8062;53.882;10.642;2023-06-26T00:18:56;18.00;99.90
15926;DHT22;8062;53.882;10.642;2023-06-26T00:20:16;18.00;99.90
15926;DHT22;8062;53.882;10.642;2023-06-26T00:21:35;18.00;99.90
15926;DHT22;8062;53.882;10.642;2023-06-26T00:22:54;17.90;99.90
15926;DHT22;8062;53.882;10.642;2023-06-26T00:24:14;17.90;99.90
15926;DHT22;8062;53.882;10.642;2023-06-26T00:25:34;17.90;99.90
15926;DHT22;8062;53.882;10.642;2023-06-26T00:26:53;17.90;99.90
15926;DHT22;8062;53.882;10.642;2023-06-26T00:28:13;17.80;99.90
15926;DHT22;8062;53.882;10.642;2023-06-26T00:29:32;17.80;99.90
15926;DHT22;8062;53.882;10.642;2023-06-26T00:30:52;17.80;99.90
15926;DHT22;8062;53.882;10.642;2023-06-26T00:32:11;17.70;99.90
15926;DHT22;8062;53.882;10.642;2023-06-26T00:33:31;17.70;99.90
15926;DHT22;8062;53.882;10.642;2023-06-26T00:34:50;17.70;99.90
15926;DHT22;8062;53.882;10.642;2023-06-26T00:36:10;17.70;99.90
15926;DHT22;8062;53.882;10.642;2023-06-26T00:37:30;17.70;99.90
15926;DHT22;8062;53.882;10.642;2023-06-26T00:38:50;17.60;99.90
15926;DHT22;8062;53.882;10.642;2023-06-26T00:40:10;17.60;99.90
15926;DHT22;8062;53.882;10.642;2023-06-26T00:41:29;17.60;99.90
15926;DHT22;8062;53.882;10.642;2023-06-26T00:42:50;17.60;99.90
15926;DHT22;8062;53.882;10.642;2023-06-26T00:44:09;17.50;99.90
15926;DHT22;8062;53.882;10.642;2023-06-26T00:45:29;17.50;99.90
15926;DHT22;8062;53.882;10.642;2023-06-26T00:46:48;17.50;99.90
15926;DHT22;8062;53.882;10.642;2023-06-26T00:48:09;17.50;99.90
15926;DHT22;8062;53.882;10.642;2023-06-26T00:49:31;17.50;99.90
15926;DHT22;8062;53.882;10.642;2023-06-26T00:50:51;17.50;99.90
15926;DHT22;8062;53.882;10.642;2023-06-26T00:52:10;17.50;99.90
15926;DHT22;8062;53.882;10.642;2023-06-26T00:53:31;17.50;99.90
15926;DHT22;8062;53.882;10.642;2023-06-26T00:54:50;17.40;99.90
15926;DHT22;8062;53.882;10.642;2023-06-26T00:56:11;17.40;99.90
15926;DHT22;8062;53.882;10.642;2023-06-26T00:57:31;17.30;99.90
15926;DHT22;8062;53.882;10.642;2023-06-26T00:58:50;17.30;99.90
15926;DHT22;8062;53.882;10.642;2023-06-26T01:00:10;17.30;99.90
15926;DHT22;8062;53.882;10.642;2023-06-26T01:01:30;17.30;99.90
15926;DHT22;8062;53.882;10.642;2023-06-26T01:02:49;17.20;99.90
15926;DHT22;8062;53.882;10.642;2023-06-26T01:04:09;17.20;99.90
15926;DHT22;8062;53.882;10.642;2023-06-26T01:05:36;17.20;99.90
15926;DHT22;8062;53.882;10.642;2023-06-26T01:06:57;17.20;99.90
15926;DHT22;8062;53.882;10.642;2023-06-26T01:08:18;17.10;99.90
15926;DHT22;8062;53.882;10.642;2023-06-26T01:09:39;17.10;99.90
15926;DHT22;8062;53.882;10.642;2023-06-26T01:10:59;17.00;99.90
15926;DHT22;8062;53.882;10.642;2023-06-26T01:12:18;17.00;99.90
15926;DHT22;8062;53.882;10.642;2023-06-26T01:13:38;17.00;99.90
15926;DHT22;8062;53.882;10.642;2023-06-26T01:15:02;17.00;99.90
15926;DHT22;8062;53.882;10.642;2023-06-26T01:16:23;16.90;99.90
15926;DHT22;8062;53.882;10.642;2023-06-26T01:17:43;16.90;99.90
15926;DHT22;8062;53.882;10.642;2023-06-26T01:19:10;16.90;99.90
15926;DHT22;8062;53.882;10.642;2023-06-26T01:20:32;16.80;99.90
15926;DHT22;8062;53.882;10.642;2023-06-26T01:21:59;16.80;99.90
15926;DHT22;8062;53.882;10.642;2023-06-26T01:23:38;16.80;99.90
15926;DHT22;8062;53.882;10.642;2023-06-26T01:25:21;16.80;99.90
15926;DHT22;8062;53.882;10.642;2023-06-26T01:26:41;16.70;99.90
15926;DHT22;8062;53.882;10.642;2023-06-26T01:28:02;16.70;99.90
15926;DHT22;8062;53.882;10.642;2023-06-26T01:29:24;16.70;99.90
15926;DHT22;8062;53.882;10.642;2023-06-26T01:30:45;16.70;99.90
15926;DHT22;8062;53.882;10.642;2023-06-26T01:32:06;16.70;99.90
15926;DHT22;8062;53.882;10.642;2023-06-26T01:33:26;16.60;99.90
15926;DHT22;8062;53.882;10.642;2023-06-26T01:34:46;16.60;99.90
15926;DHT22;8062;53.882;10.642;2023-06-26T01:36:06;16.60;99.90
15926;DHT22;8062;53.882;10.642;2023-06-26T01:37:28;16.60;99.90
15926;DHT22;8062;53.882;10.642;2023-06-26T01:38:48;16.60;99.90
15926;DHT22;8062;53.882;10.642;2023-06-26T01:40:08;16.60;99.90
15926;DHT22;8062;53.882;10.642;2023-06-26T01:41:28;16.60;99.90
15926;DHT22;8062;53.882;10.642;2023-06-26T01:42:48;16.60;99.90
15926;DHT22;8062;53.882;10.642;2023-06-26T01:44:27;16.50;99.90
15926;DHT22;8062;53.882;10.642;2023-06-26T01:45:50;16.50;99.90
15926;DHT22;8062;53.882;10.642;2023-06-26T01:47:14;16.50;99.90
15926;DHT22;8062;53.882;10.642;2023-06-26T01:49:05;16.50;99.90
15926;DHT22;8062;53.882;10.642;2023-06-26T01:50:28;16.50;99.90
15926;DHT22;8062;53.882;10.642;2023-06-26T01:52:21;16.50;99.90
15926;DHT22;8062;53.882;10.642;2023-06-26T01:53:47;16.50;99.90
15926;DHT22;8062;53.882;10.642;2023-06-26T01:56:32;16.50;99.90
15926;DHT22;8062;53.882;10.642;2023-06-26T01:57:55;16.50;99.90
15926;DHT22;8062;53.882;10.642;2023-06-26T01:59:18;16.50;99.90
15926;DHT22;8062;53.882;10.642;2023-06-26T02:00:38;16.40;99.90
15926;DHT22;8062;53.882;10.642;2023-06-26T02:01:58;16.40;99.90
15926;DHT22;8062;53.882;10.642;2023-06-26T02:03:20;16.40;99.90
15926;DHT22;8062;53.882;10.642;2023-06-26T02:04:41;16.40;99.90
15926;DHT22;8062;53.882;10.642;2023-06-26T02:06:00;16.40;99.90
15926;DHT22;8062;53.882;10.642;2023-06-26T02:07:20;16.40;99.90
15926;DHT22;8062;53.882;10.642;2023-06-26T02:08:40;16.40;99.90
15926;DHT22;8062;53.882;10.642;2023-06-26T02:10:00;16.40;99.90
15926;DHT22;8062;53.882;10.642;2023-06-26T02:11:20;16.40;99.90
15926;DHT22;8062;53.882;10.642;2023-06-26T02:12:39;16.50;99.90
15926;DHT22;8062;53.882;10.642;2023-06-26T02:13:59;16.50;99.90
15926;DHT22;8062;53.882;10.642;2023-06-26T02:15:18;16.40;99.90
15926;DHT22;8062;53.882;10.642;2023-06-26T02:16:38;16.50;99.90
15926;DHT22;8062;53.882;10.642;2023-06-26T02:17:59;16.50;99.90
15926;DHT22;8062;53.882;10.642;2023-06-26T02:19:19;16.50;99.90
15926;DHT22;8062;53.882;10.642;2023-06-26T02:20:40;16.50;99.90
15926;DHT22;8062;53.882;10.642;2023-06-26T02:22:00;16.50;99.90
15926;DHT22;8062;53.882;10.642;2023-06-26T02:23:20;16.50;99.90
15926;DHT22;8062;53.882;10.642;2023-06-26T02:24:39;16.50;99.90
15926;DHT22;8062;53.882;10.642;2023-06-26T02:25:59;16.50;99.90
15926;DHT22;8062;53.882;10.642;2023-06-26T02:27:19;16.50;99.90
15926;DHT22;8062;53.882;10.642;2023-06-26T02:28:38;16.60;99.90
15926;DHT22;8062;53.882;10.642;2023-06-26T02:29:58;16.70;99.90
15926;DHT22;8062;53.882;10.642;2023-06-26T02:31:17;16.80;99.90
15926;DHT22;8062;53.882;10.642;2023-06-26T02:32:37;16.90;99.90
15926;DHT22;8062;53.882;10.642;2023-06-26T02:33:57;17.00;99.90
15926;DHT22;8062;53.882;10.642;2023-06-26T02:35:16;17.10;99.90
15926;DHT22;8062;53.882;10.642;2023-06-26T02:36:36;17.10;99.90
15926;DHT22;8062;53.882;10.642;2023-06-26T02:37:58;17.10;99.90
15926;DHT22;8062;53.882;10.642;2023-06-26T02:39:17;17.20;99.90
15926;DHT22;8062;53.882;10.642;2023-06-26T02:40:38;17.20;99.90
15926;DHT22;8062;53.882;10.642;2023-06-26T02:41:57;17.30;99.90
15926;DHT22;8062;53.882;10.642;2023-06-26T02:43:17;17.30;99.90
15926;DHT22;8062;53.882;10.642;2023-06-26T02:44:38;17.40;99.90
15926;DHT22;8062;53.882;10.642;2023-06-26T02:45:57;17.50;99.90
15926;DHT22;8062;53.882;10.642;2023-06-26T02:47:17;17.50;99.90
15926;DHT22;8062;53.882;10.642;2023-06-26T02:48:38;17.60;99.90
15926;DHT22;8062;53.882;10.642;2023-06-26T02:49:57;17.70;99.90
15926;DHT22;8062;53.882;10.642;2023-06-26T02:51:16;17.80;99.90
15926;DHT22;8062;53.882;10.642;2023-06-26T02:52:36;17.80;99.90
15926;DHT22;8062;53.882;10.642;2023-06-26T02:53:56;17.90;99.90
15926;DHT22;8062;53.882;10.642;2023-06-26T02:55:15;17.90;99.90
15926;DHT22;8062;53.882;10.642;2023-06-26T02:56:35;17.90;99.90
15926;DHT22;8062;53.882;10.642;2023-06-26T02:57:55;18.00;99.90
15926;DHT22;8062;53.882;10.642;2023-06-26T02:59:16;18.00;99.90
15926;DHT22;8062;53.882;10.642;2023-06-26T03:00:35;18.10;99.90
15926;DHT22;8062;53.882;10.642;2023-06-26T03:02:00;18.10;99.90
15926;DHT22;8062;53.882;10.642;2023-06-26T03:03:28;18.10;99.90
15926;DHT22;8062;53.882;10.642;2023-06-26T03:04:50;18.20;99.90
15926;DHT22;8062;53.882;10.642;2023-06-26T03:06:09;18.20;99.90
15926;DHT22;8062;53.882;10.642;2023-06-26T03:07:29;18.30;99.90
15926;DHT22;8062;53.882;10.642;2023-06-26T03:08:49;18.30;99.90
15926;DHT22;8062;53.882;10.642;2023-06-26T03:10:09;18.30;99.90
15926;DHT22;8062;53.882;10.642;2023-06-26T03:11:28;18.40;99.90
15926;DHT22;8062;53.882;10.642;2023-06-26T03:12:49;18.40;99.90
15926;DHT22;8062;53.882;10.642;2023-06-26T03:14:10;18.40;99.90
15926;DHT22;8062;53.882;10.642;2023-06-26T03:15:30;18.40;99.90
15926;DHT22;8062;53.882;10.642;2023-06-26T03:16:50;18.50;99.90
15926;DHT22;8062;53.882;10.642;2023-06-26T03:18:12;18.50;99.90
15926;DHT22;8062;53.882;10.642;2023-06-26T03:19:31;18.50;99.90
15926;DHT22;8062;53.882;10.642;2023-06-26T03:21:14;18.50;99.90
15926;DHT22;8062;53.882;10.642;2023-06-26T03:22:34;18.60;99.90
15926;DHT22;8062;53.882;10.642;2023-06-26T03:23:54;18.60;99.90
15926;DHT22;8062;53.882;10.642;2023-06-26T03:25:14;18.70;99.90
15926;DHT22;8062;53.882;10.642;2023-06-26T03:26:33;18.70;99.90
15926;DHT22;8062;53.882;10.642;2023-06-26T03:27:53;18.70;99.90
15926;DHT22;8062;53.882;10.642;2023-06-26T03:29:13;18.70;99.90
15926;DHT22;8062;53.882;10.642;2023-06-26T03:30:33;18.80;99.90
15926;DHT22;8062;53.882;10.642;2023-06-26T03:31:53;18.80;99.90
15926;DHT22;8062;53.882;10.642;2023-06-26T03:33:14;18.90;99.90
15926;DHT22;8062;53.882;10.642;2023-06-26T03:34:34;18.90;99.90
15926;DHT22;8062;53.882;10.642;2023-06-26T03:35:53;18.90;99.90
15926;DHT22;8062;53.882;10.642;2023-06-26T03:37:13;18.90;99.90
15926;DHT22;8062;53.882;10.642;2023-06-26T03:38:33;19.00;99.90
15926;DHT22;8062;53.882;10.642;2023-06-26T03:39:53;19.00;99.90
15926;DHT22;8062;53.882;10.642;2023-06-26T03:41:14;19.00;99.90
15926;DHT22;8062;53.882;10.642;2023-06-26T03:42:34;19.00;99.90
15926;DHT22;8062;53.882;10.642;2023-06-26T03:43:54;19.10;99.90
15926;DHT22;8062;53.882;10.642;2023-06-26T03:45:19;19.10;99.90
15926;DHT22;8062;53.882;10.642;2023-06-26T03:46:39;19.10;99.90
15926;DHT22;8062;53.882;10.642;2023-06-26T03:47:59;19.10;99.90
15926;DHT22;8062;53.882;10.642;2023-06-26T03:49:18;19.20;99.90
15926;DHT22;8062;53.882;10.642;2023-06-26T03:50:38;19.20;99.90
15926;DHT22;8062;53.882;10.642;2023-06-26T03:51:57;19.20;99.90
15926;DHT22;8062;53.882;10.642;2023-06-26T03:53:17;19.20;99.90
15926;DHT22;8062;53.882;10.642;2023-06-26T03:54:36;19.30;99.90
15926;DHT22;8062;53.882;10.642;2023-06-26T03:55:55;19.30;99.90
15926;DHT22;8062;53.882;10.642;2023-06-26T03:57:16;19.30;99.90
15926;DHT22;8062;53.882;10.642;2023-06-26T03:58:35;19.30;99.90
15926;DHT22;8062;53.882;10.642;2023-06-26T03:59:55;19.40;99.90
15926;DHT22;8062;53.882;10.642;2023-06-26T04:01:15;19.40;99.90
15926;DHT22;8062;53.882;10.642;2023-06-26T04:02:36;19.40;99.90
15926;DHT22;8062;53.882;10.642;2023-06-26T04:03:55;19.40;99.90
15926;DHT22;8062;53.882;10.642;2023-06-26T04:05:15;19.50;99.90
15926;DHT22;8062;53.882;10.642;2023-06-26T04:06:36;19.50;99.90
15926;DHT22;8062;53.882;10.642;2023-06-26T04:07:55;19.60;99.90
15926;DHT22;8062;53.882;10.642;2023-06-26T04:09:15;19.60;99.90
15926;DHT22;8062;53.882;10.642;2023-06-26T04:10:35;19.60;99.90
15926;DHT22;8062;53.882;10.642;2023-06-26T04:11:55;19.60;99.90
15926;DHT22;8062;53.882;10.642;2023-06-26T04:13:15;19.60;99.90
15926;DHT22;8062;53.882;10.642;2023-06-26T04:14:35;19.60;99.90
15926;DHT22;8062;53.882;10.642;2023-06-26T04:15:54;19.70;99.90
15926;DHT22;8062;53.882;10.642;2023-06-26T04:17:14;19.70;99.90
15926;DHT22;8062;53.882;10.642;2023-06-26T04:18:33;19.80;99.90
15926;DHT22;8062;53.882;10.642;2023-06-26T04:19:53;19.80;99.90
15926;DHT22;8062;53.882;10.642;2023-06-26T04:21:13;19.80;99.90
15926;DHT22;8062;53.882;10.642;2023-06-26T04:22:33;19.90;99.90
15926;DHT22;8062;53.882;10.642;2023-06-26T04:23:53;20.00;99.90
15926;DHT22;8062;53.882;10.642;2023-06-26T04:25:12;20.00;99.90
15926;DHT22;8062;53.882;10.642;2023-06-26T04:26:32;20.00;99.90
15926;DHT22;8062;53.882;10.642;2023-06-26T04:27:52;20.10;99.90
15926;DHT22;8062;53.882;10.642;2023-06-26T04:29:11;20.10;99.90
15926;DHT22;8062;53.882;10.642;2023-06-26T04:30:30;20.10;99.90
15926;DHT22;8062;53.882;10.642;2023-06-26T04:31:50;20.10;99.90
15926;DHT22;8062;53.882;10.642;2023-06-26T04:33:10;20.20;99.90
15926;DHT22;8062;53.882;10.642;2023-06-26T04:34:31;20.30;99.90
15926;DHT22;8062;53.882;10.642;2023-06-26T04:35:54;20.30;99.90
15926;DHT22;8062;53.882;10.642;2023-06-26T04:37:14;20.30;99.90
15926;DHT22;8062;53.882;10.642;2023-06-26T04:38:36;20.40;99.90
15926;DHT22;8062;53.882;10.642;2023-06-26T04:39:56;20.40;99.90
15926;DHT22;8062;53.882;10.642;2023-06-26T04:41:15;20.40;99.90
15926;DHT22;8062;53.882;10.642;2023-06-26T04:42:35;20.50;99.90
15926;DHT22;8062;53.882;10.642;2023-06-26T04:43:54;20.50;99.90
15926;DHT22;8062;53.882;10.642;2023-06-26T04:45:14;20.50;99.90
15926;DHT22;8062;53.882;10.642;2023-06-26T04:46:33;20.60;99.90
15926;DHT22;8062;53.882;10.642;2023-06-26T04:47:53;20.70;99.90
15926;DHT22;8062;53.882;10.642;2023-06-26T04:49:13;20.80;99.90
15926;DHT22;8062;53.882;10.642;2023-06-26T04:50:32;20.80;99.90
15926;DHT22;8062;53.882;10.642;2023-06-26T04:51:54;20.80;99.90
15926;DHT22;8062;53.882;10.642;2023-06-26T04:53:13;20.80;99.90
15926;DHT22;8062;53.882;10.642;2023-06-26T04:54:33;20.80;99.90
15926;DHT22;8062;53.882;10.642;2023-06-26T04:55:53;20.80;99.90
15926;DHT22;8062;53.882;10.642;2023-06-26T04:57:12;20.80;99.90
15926;DHT22;8062;53.882;10.642;2023-06-26T04:58:32;20.90;99.90
15926;DHT22;8062;53.882;10.642;2023-06-26T04:59:52;21.00;99.90
15926;DHT22;8062;53.882;10.642;2023-06-26T05:01:11;21.00;99.90
15926;DHT22;8062;53.882;10.642;2023-06-26T05:02:33;21.00;99.90
15926;DHT22;8062;53.882;10.642;2023-06-26T05:03:52;21.10;99.90
15926;DHT22;8062;53.882;10.642;2023-06-26T05:05:11;21.10;99.90
15926;DHT22;8062;53.882;10.642;2023-06-26T05:06:31;21.10;99.90
15926;DHT22;8062;53.882;10.642;2023-06-26T05:07:53;21.20;99.90
15926;DHT22;8062;53.882;10.642;2023-06-26T05:09:12;21.20;99.90
15926;DHT22;8062;53.882;10.642;2023-06-26T05:10:33;21.20;99.90
15926;DHT22;8062;53.882;10.642;2023-06-26T05:11:52;21.30;99.90
15926;DHT22;8062;53.882;10.642;2023-06-26T05:13:12;21.30;99.90
15926;DHT22;8062;53.882;10.642;2023-06-26T05:14:34;21.40;99.90
15926;DHT22;8062;53.882;10.642;2023-06-26T05:15:54;21.50;99.90
15926;DHT22;8062;53.882;10.642;2023-06-26T05:17:14;21.60;99.90
15926;DHT22;8062;53.882;10.642;2023-06-26T05:18:33;21.70;99.90
15926;DHT22;8062;53.882;10.642;2023-06-26T05:19:53;21.80;99.90
15926;DHT22;8062;53.882;10.642;2023-06-26T05:21:12;21.80;99.90
15926;DHT22;8062;53.882;10.642;2023-06-26T05:22:33;21.90;99.90
15926;DHT22;8062;53.882;10.642;2023-06-26T05:23:56;21.90;99.90
15926;DHT22;8062;53.882;10.642;2023-06-26T05:25:18;22.00;99.90
15926;DHT22;8062;53.882;10.642;2023-06-26T05:26:40;22.10;99.90
15926;DHT22;8062;53.882;10.642;2023-06-26T05:28:00;22.10;99.90
15926;DHT22;8062;53.882;10.642;2023-06-26T05:29:20;22.20;99.90
15926;DHT22;8062;53.882;10.642;2023-06-26T05:30:40;22.20;99.90
15926;DHT22;8062;53.882;10.642;2023-06-26T05:31:59;22.30;99.90
15926;DHT22;8062;53.882;10.642;2023-06-26T05:33:21;22.30;99.90
15926;DHT22;8062;53.882;10.642;2023-06-26T05:34:42;22.30;99.90
15926;DHT22;8062;53.882;10.642;2023-06-26T05:36:04;22.40;99.90
15926;DHT22;8062;53.882;10.642;2023-06-26T05:37:25;22.50;99.90
15926;DHT22;8062;53.882;10.642;2023-06-26T05:38:46;22.50;99.90
15926;DHT22;8062;53.882;10.642;2023-06-26T05:40:05;22.60;99.90
15926;DHT22;8062;53.882;10.642;2023-06-26T05:41:25;22.70;99.90
15926;DHT22;8062;53.882;10.642;2023-06-26T05:42:45;22.70;99.90
15926;DHT22;8062;53.882;10.642;2023-06-26T05:44:04;22.80;99.90
15926;DHT22;8062;53.882;10.642;2023-06-26T05:45:24;22.80;99.90
15926;DHT22;8062;53.882;10.642;2023-06-26T05:46:45;22.90;99.90
15926;DHT22;8062;53.882;10.642;2023-06-26T05:48:05;22.90;99.90
15926;DHT22;8062;53.882;10.642;2023-06-26T05:49:24;23.10;99.90
15926;DHT22;8062;53.882;10.642;2023-06-26T05:50:44;23.20;99.90
15926;DHT22;8062;53.882;10.642;2023-06-26T05:52:04;23.20;99.90
15926;DHT22;8062;53.882;10.642;2023-06-26T05:53:24;23.30;99.90
15926;DHT22;8062;53.882;10.642;2023-06-26T05:54:44;23.40;99.90
15926;DHT22;8062;53.882;10.642;2023-06-26T05:56:04;23.40;99.90
15926;DHT22;8062;53.882;10.642;2023-06-26T05:57:23;23.50;99.90
15926;DHT22;8062;53.882;10.642;2023-06-26T05:58:44;23.70;99.90
15926;DHT22;8062;53.882;10.642;2023-06-26T06:00:04;23.70;99.90
15926;DHT22;8062;53.882;10.642;2023-06-26T06:01:32;23.80;99.90
15926;DHT22;8062;53.882;10.642;2023-06-26T06:02:54;23.90;99.90
15926;DHT22;8062;53.882;10.642;2023-06-26T06:04:13;24.10;99.90
15926;DHT22;8062;53.882;10.642;2023-06-26T06:05:33;24.20;99.90
15926;DHT22;8062;53.882;10.642;2023-06-26T06:06:53;24.20;99.90
15926;DHT22;8062;53.882;10.642;2023-06-26T06:08:12;24.30;99.90
15926;DHT22;8062;53.882;10.642;2023-06-26T06:09:32;24.40;99.90
15926;DHT22;8062;53.882;10.642;2023-06-26T06:10:51;24.50;99.90
15926;DHT22;8062;53.882;10.642;2023-06-26T06:12:11;24.60;99.90
15926;DHT22;8062;53.882;10.642;2023-06-26T06:13:30;24.90;99.90
15926;DHT22;8062;53.882;10.642;2023-06-26T06:14:50;25.10;99.90
15926;DHT22;8062;53.882;10.642;2023-06-26T06:16:10;25.10;99.90
15926;DHT22;8062;53.882;10.642;2023-06-26T06:17:29;25.20;99.90
15926;DHT22;8062;53.882;10.642;2023-06-26T06:18:49;25.20;99.90
15926;DHT22;8062;53.882;10.642;2023-06-26T06:20:09;25.40;99.90
15926;DHT22;8062;53.882;10.642;2023-06-26T06:21:28;25.70;99.90
15926;DHT22;8062;53.882;10.642;2023-06-26T06:22:48;25.70;99.90
15926;DHT22;8062;53.882;10.642;2023-06-26T06:24:07;25.80;99.80
15926;DHT22;8062;53.882;10.642;2023-06-26T06:25:28;25.80;99.80
15926;DHT22;8062;53.882;10.642;2023-06-26T06:26:48;26.10;99.70
15926;DHT22;8062;53.882;10.642;2023-06-26T06:28:08;26.20;99.60
15926;DHT22;8062;53.882;10.642;2023-06-26T06:29:27;26.20;99.60
15926;DHT22;8062;53.882;10.642;2023-06-26T06:30:47;26.20;99.00
15926;DHT22;8062;53.882;10.642;2023-06-26T06:32:07;26.20;98.90
15926;DHT22;8062;53.882;10.642;2023-06-26T06:33:26;26.10;99.70
15926;DHT22;8062;53.882;10.642;2023-06-26T06:34:46;26.10;99.40
15926;DHT22;8062;53.882;10.642;2023-06-26T06:36:05;26.00;99.90
15926;DHT22;8062;53.882;10.642;2023-06-26T06:37:24;26.10;99.90
15926;DHT22;8062;53.882;10.642;2023-06-26T06:38:45;26.10;99.90
15926;DHT22;8062;53.882;10.642;2023-06-26T06:40:11;26.20;98.90
15926;DHT22;8062;53.882;10.642;2023-06-26T06:41:31;26.40;99.10
15926;DHT22;8062;53.882;10.642;2023-06-26T06:42:51;26.60;98.20
15926;DHT22;8062;53.882;10.642;2023-06-26T06:44:11;26.70;97.60
15926;DHT22;8062;53.882;10.642;2023-06-26T06:45:30;26.90;98.10
15926;DHT22;8062;53.882;10.642;2023-06-26T06:46:50;27.30;97.90
15926;DHT22;8062;53.882;10.642;2023-06-26T06:48:10;27.40;97.20
15926;DHT22;8062;53.882;10.642;2023-06-26T06:49:30;27.40;97.00
15926;DHT22;8062;53.882;10.642;2023-06-26T06:50:49;27.50;96.70
15926;DHT22;8062;53.882;10.642;2023-06-26T06:52:09;27.50;96.80
15926;DHT22;8062;53.882;10.642;2023-06-26T06:53:29;27.60;96.80
15926;DHT22;8062;53.882;10.642;2023-06-26T06:54:57;27.80;96.10
15926;DHT22;8062;53.882;10.642;2023-06-26T06:56:17;27.80;95.60
15926;DHT22;8062;53.882;10.642;2023-06-26T06:57:38;27.70;95.70
15926;DHT22;8062;53.882;10.642;2023-06-26T06:58:58;27.70;95.80
15926;DHT22;8062;53.882;10.642;2023-06-26T07:00:18;27.60;96.10
15926;DHT22;8062;53.882;10.642;2023-06-26T07:01:39;27.70;95.80
15926;DHT22;8062;53.882;10.642;2023-06-26T07:02:58;27.60;96.30
15926;DHT22;8062;53.882;10.642;2023-06-26T07:04:19;27.70;96.90
15926;DHT22;8062;53.882;10.642;2023-06-26T07:05:40;27.80;96.80
15926;DHT22;8062;53.882;10.642;2023-06-26T07:07:00;27.90;96.20
15926;DHT22;8062;53.882;10.642;2023-06-26T07:08:19;28.00;96.00
15926;DHT22;8062;53.882;10.642;2023-06-26T07:09:39;28.00;95.00
15926;DHT22;8062;53.882;10.642;2023-06-26T07:10:58;28.40;94.70
15926;DHT22;8062;53.882;10.642;2023-06-26T07:12:18;28.80;94.30
15926;DHT22;8062;53.882;10.642;2023-06-26T07:13:37;29.10;93.90
15926;DHT22;8062;53.882;10.642;2023-06-26T07:14:57;29.20;93.70
15926;DHT22;8062;53.882;10.642;2023-06-26T07:16:17;29.30;93.80
15926;DHT22;8062;53.882;10.642;2023-06-26T07:17:37;29.60;93.90
15926;DHT22;8062;53.882;10.642;2023-06-26T07:19:00;29.90;92.80
15926;DHT22;8062;53.882;10.642;2023-06-26T07:20:19;30.10;92.80
15926;DHT22;8062;53.882;10.642;2023-06-26T07:21:39;30.10;92.90
15926;DHT22;8062;53.882;10.642;2023-06-26T07:22:58;30.30;92.40
15926;DHT22;8062;53.882;10.642;2023-06-26T07:24:18;30.30;92.20
15926;DHT22;8062;53.882;10.642;2023-06-26T07:25:37;30.10;92.70
15926;DHT22;8062;53.882;10.642;2023-06-26T07:26:56;30.10;92.80
15926;DHT22;8062;53.882;10.642;2023-06-26T07:28:16;30.10;92.30
15926;DHT22;8062;53.882;10.642;2023-06-26T07:29:35;30.00;92.20
15926;DHT22;8062;53.882;10.642;2023-06-26T07:30:55;30.30;91.80
15926;DHT22;8062;53.882;10.642;2023-06-26T07:32:15;30.30;91.90
15926;DHT22;8062;53.882;10.642;2023-06-26T07:33:34;30.50;92.20
15926;DHT22;8062;53.882;10.642;2023-06-26T07:34:53;30.80;91.80
15926;DHT22;8062;53.882;10.642;2023-06-26T07:36:13;31.00;91.60
15926;DHT22;8062;53.882;10.642;2023-06-26T07:37:33;31.00;91.30
15926;DHT22;8062;53.882;10.642;2023-06-26T07:38:52;30.80;91.00
15926;DHT22;8062;53.882;10.642;2023-06-26T07:40:12;30.60;90.90
15926;DHT22;8062;53.882;10.642;2023-06-26T07:41:32;30.90;91.30
15926;DHT22;8062;53.882;10.642;2023-06-26T07:42:51;31.00;91.60
15926;DHT22;8062;53.882;10.642;2023-06-26T07:44:13;31.30;91.10
15926;DHT22;8062;53.882;10.642;2023-06-26T07:45:33;31.60;91.30
15926;DHT22;8062;53.882;10.642;2023-06-26T07:46:53;31.60;91.10
15926;DHT22;8062;53.882;10.642;2023-06-26T07:48:12;31.80;91.10
15926;DHT22;8062;53.882;10.642;2023-06-26T07:49:31;31.90;91.50
15926;DHT22;8062;53.882;10.642;2023-06-26T07:50:51;31.90;90.40
15926;DHT22;8062;53.882;10.642;2023-06-26T07:52:11;31.70;89.40
15926;DHT22;8062;53.882;10.642;2023-06-26T07:53:30;31.60;90.20
15926;DHT22;8062;53.882;10.642;2023-06-26T07:54:50;31.40;89.90
15926;DHT22;8062;53.882;10.642;2023-06-26T07:56:10;31.40;90.50
15926;DHT22;8062;53.882;10.642;2023-06-26T07:57:29;31.10;89.10
15926;DHT22;8062;53.882;10.642;2023-06-26T07:58:50;31.00;90.10
15926;DHT22;8062;53.882;10.642;2023-06-26T08:00:10;30.90;90.80
15926;DHT22;8062;53.882;10.642;2023-06-26T08:01:35;31.00;90.20
15926;DHT22;8062;53.882;10.642;2023-06-26T08:02:55;31.00;90.80
15926;DHT22;8062;53.882;10.642;2023-06-26T08:04:14;31.10;90.80
15926;DHT22;8062;53.882;10.642;2023-06-26T08:05:34;31.10;91.60
15926;DHT22;8062;53.882;10.642;2023-06-26T08:06:55;31.30;91.00
15926;DHT22;8062;53.882;10.642;2023-06-26T08:08:14;31.20;90.50
15926;DHT22;8062;53.882;10.642;2023-06-26T08:09:34;31.00;90.80
15926;DHT22;8062;53.882;10.642;2023-06-26T08:10:54;31.00;91.30
15926;DHT22;8062;53.882;10.642;2023-06-26T08:12:13;31.00;90.50
15926;DHT22;8062;53.882;10.642;2023-06-26T08:13:32;30.90;90.80
15926;DHT22;8062;53.882;10.642;2023-06-26T08:14:52;31.10;91.50
15926;DHT22;8062;53.882;10.642;2023-06-26T08:16:11;31.10;91.30
15926;DHT22;8062;53.882;10.642;2023-06-26T08:17:31;31.10;91.30
15926;DHT22;8062;53.882;10.642;2023-06-26T08:18:51;31.00;91.70
15926;DHT22;8062;53.882;10.642;2023-06-26T08:20:11;31.00;91.20
15926;DHT22;8062;53.882;10.642;2023-06-26T08:21:30;30.80;90.70
15926;DHT22;8062;53.882;10.642;2023-06-26T08:22:50;31.00;91.10
15926;DHT22;8062;53.882;10.642;2023-06-26T08:24:11;31.10;91.50
15926;DHT22;8062;53.882;10.642;2023-06-26T08:25:32;31.20;91.50
15926;DHT22;8062;53.882;10.642;2023-06-26T08:26:52;31.50;91.20
15926;DHT22;8062;53.882;10.642;2023-06-26T08:28:11;31.40;90.70
15926;DHT22;8062;53.882;10.642;2023-06-26T08:29:31;31.50;91.20